createdAt,value
2017-05-24T00:00:28.542Z,0
2017-05-24T00:01:28.534Z,0
2017-05-24T00:02:28.843Z,0
2017-05-24T00:03:28.834Z,0
2017-05-24T00:04:28.831Z,0
2017-05-24T00:05:28.528Z,0
2017-05-24T00:06:28.210Z,0
2017-05-24T00:07:28.834Z,0
2017-05-24T00:08:28.515Z,0
2017-05-24T00:09:28.510Z,0
2017-05-24T00:10:27.904Z,0
2017-05-24T00:11:28.506Z,0
2017-05-24T00:12:28.505Z,0
2017-05-24T00:13:28.812Z,0
2017-05-24T00:14:28.498Z,0
2017-05-24T00:15:28.488Z,0
2017-05-24T00:16:28.492Z,0
2017-05-24T00:17:28.483Z,0
2017-05-24T00:18:28.484Z,0
2017-05-24T00:19:28.478Z,0
2017-05-24T00:20:28.476Z,0
2017-05-24T00:21:28.470Z,0
2017-05-24T00:22:28.468Z,0
2017-05-24T00:23:28.160Z,0
2017-05-24T00:24:28.464Z,0
2017-05-24T00:25:28.152Z,0
2017-05-24T00:26:28.460Z,0
2017-05-24T00:27:28.206Z,0
2017-05-24T00:28:28.758Z,0
2017-05-24T00:29:28.445Z,0
2017-05-24T00:30:28.147Z,0
2017-05-24T00:31:28.749Z,0
2017-05-24T00:32:28.438Z,0
2017-05-24T00:33:28.127Z,0
2017-05-24T00:34:28.141Z,0
2017-05-24T00:35:28.738Z,0
2017-05-24T00:36:28.734Z,0
2017-05-24T00:37:28.420Z,0
2017-05-24T00:38:28.426Z,0
2017-05-24T00:39:28.724Z,0
2017-05-24T00:40:28.718Z,0
2017-05-24T00:41:28.406Z,0
2017-05-24T00:42:28.708Z,0
2017-05-24T00:43:28.711Z,0
2017-05-24T00:44:28.710Z,0
2017-05-24T00:45:28.702Z,0
2017-05-24T00:46:28.388Z,0
2017-05-24T00:47:28.388Z,0
2017-05-24T00:48:28.390Z,0
2017-05-24T00:49:28.391Z,0
2017-05-24T00:50:28.420Z,0
2017-05-24T00:51:28.680Z,0
2017-05-24T00:52:28.377Z,0
2017-05-24T00:53:28.683Z,0
2017-05-24T00:54:28.676Z,0
2017-05-24T00:55:28.365Z,0
2017-05-24T00:56:28.362Z,0
2017-05-24T00:57:28.048Z,0
2017-05-24T00:58:28.356Z,0
2017-05-24T00:59:28.657Z,0
2017-05-24T01:00:28.652Z,0
2017-05-24T01:01:28.345Z,0
2017-05-24T01:02:28.646Z,0
2017-05-24T01:03:28.342Z,0
2017-05-24T01:04:28.030Z,0
2017-05-24T01:05:28.634Z,0
2017-05-24T01:06:28.329Z,0
2017-05-24T01:07:28.631Z,0
2017-05-24T01:08:28.018Z,0
2017-05-24T01:09:28.318Z,0
2017-05-24T01:10:28.315Z,0
2017-05-24T01:11:28.002Z,0
2017-05-24T01:12:28.304Z,0
2017-05-24T01:13:28.303Z,0
2017-05-24T01:14:28.604Z,0
2017-05-24T01:15:28.604Z,0
2017-05-24T01:16:28.297Z,0
2017-05-24T01:17:28.595Z,0
2017-05-24T01:18:28.293Z,0
2017-05-24T01:19:27.981Z,0
2017-05-24T01:20:28.281Z,0
2017-05-24T01:21:28.581Z,0
2017-05-24T01:22:28.580Z,0
2017-05-24T01:23:27.965Z,0
2017-05-24T01:24:27.657Z,0
2017-05-24T01:25:28.570Z,0
2017-05-24T01:26:28.263Z,0
2017-05-24T01:27:27.645Z,0
2017-05-24T01:28:27.647Z,0
2017-05-24T01:29:27.640Z,0
2017-05-24T01:30:27.944Z,0
2017-05-24T01:31:28.251Z,0
2017-05-24T01:32:27.933Z,0
2017-05-24T01:33:27.928Z,0
2017-05-24T01:34:28.540Z,0
2017-05-24T01:35:28.542Z,0
2017-05-24T01:36:28.230Z,0
2017-05-24T01:37:28.529Z,0
2017-05-24T01:38:28.229Z,0
2017-05-24T01:39:28.221Z,0
2017-05-24T01:40:27.602Z,0
2017-05-24T01:41:28.210Z,0
2017-05-24T01:42:28.208Z,0
2017-05-24T01:43:28.506Z,0
2017-05-24T01:44:28.524Z,0
2017-05-24T01:45:28.194Z,0
2017-05-24T01:46:28.499Z,0
2017-05-24T01:47:28.197Z,0
2017-05-24T01:48:28.197Z,0
2017-05-24T01:49:28.190Z,0
2017-05-24T01:50:28.180Z,0
2017-05-24T01:51:28.177Z,0
2017-05-24T01:52:28.174Z,0
2017-05-24T01:53:28.480Z,0
2017-05-24T01:54:28.482Z,0
2017-05-24T01:55:28.167Z,0
2017-05-24T01:56:28.467Z,0
2017-05-24T01:57:27.852Z,0
2017-05-24T01:58:28.160Z,0
2017-05-24T01:59:28.465Z,0
2017-05-24T02:00:28.146Z,0
2017-05-24T02:01:28.449Z,0
2017-05-24T02:02:28.143Z,0
2017-05-24T02:03:28.448Z,0
2017-05-24T02:04:28.138Z,0
2017-05-24T02:05:28.436Z,0
2017-05-24T02:06:28.437Z,0
2017-05-24T02:07:27.816Z,0
2017-05-24T02:08:27.821Z,0
2017-05-24T02:09:27.822Z,0
2017-05-24T02:10:28.114Z,0
2017-05-24T02:11:28.114Z,0
2017-05-24T02:12:27.804Z,0
2017-05-24T02:13:27.797Z,0
2017-05-24T02:14:28.411Z,0
2017-05-24T02:15:28.405Z,0
2017-05-24T02:16:28.097Z,0
2017-05-24T02:17:28.408Z,0
2017-05-24T02:18:28.087Z,0
2017-05-24T02:19:28.393Z,0
2017-05-24T02:20:27.466Z,0
2017-05-24T02:21:28.390Z,0
2017-05-24T02:22:28.378Z,0
2017-05-24T02:23:28.079Z,0
2017-05-24T02:24:28.067Z,0
2017-05-24T02:25:28.374Z,0
2017-05-24T02:26:28.074Z,0
2017-05-24T02:27:28.365Z,0
2017-05-24T02:28:28.071Z,0
2017-05-24T02:29:28.059Z,0
2017-05-24T02:30:28.358Z,0
2017-05-24T02:31:28.363Z,0
2017-05-24T02:32:28.350Z,0
2017-05-24T02:33:27.729Z,0
2017-05-24T02:34:27.741Z,0
2017-05-24T02:35:28.033Z,0
2017-05-24T02:36:28.342Z,0
2017-05-24T02:37:28.022Z,0
2017-05-24T02:38:28.025Z,0
2017-05-24T02:39:28.023Z,0
2017-05-24T02:40:28.011Z,0
2017-05-24T02:41:28.009Z,0
2017-05-24T02:42:28.316Z,0
2017-05-24T02:43:28.013Z,0
2017-05-24T02:44:28.311Z,0
2017-05-24T02:45:27.694Z,0
2017-05-24T02:46:28.301Z,0
2017-05-24T02:47:27.992Z,0
2017-05-24T02:48:27.986Z,0
2017-05-24T02:49:27.991Z,0
2017-05-24T02:50:27.368Z,0
2017-05-24T02:51:27.673Z,0
2017-05-24T02:52:27.673Z,0
2017-05-24T02:53:27.971Z,0
2017-05-24T02:54:28.278Z,0
2017-05-24T02:55:27.656Z,0
2017-05-24T02:56:28.271Z,0
2017-05-24T02:57:27.957Z,0
2017-05-24T02:58:27.957Z,0
2017-05-24T02:59:28.254Z,0
2017-05-24T03:00:28.254Z,0
2017-05-24T03:01:27.946Z,0
2017-05-24T03:02:27.945Z,0
2017-05-24T03:03:27.939Z,0
2017-05-24T03:04:27.933Z,0
2017-05-24T03:05:27.991Z,0
2017-05-24T03:06:28.232Z,0
2017-05-24T03:07:28.235Z,0
2017-05-24T03:08:28.248Z,0
2017-05-24T03:09:28.221Z,0
2017-05-24T03:10:27.925Z,0
2017-05-24T03:11:28.216Z,0
2017-05-24T03:12:27.604Z,0
2017-05-24T03:13:27.915Z,0
2017-05-24T03:14:27.902Z,0
2017-05-24T03:15:28.205Z,0
2017-05-24T03:16:28.197Z,0
2017-05-24T03:17:28.198Z,0
2017-05-24T03:18:27.886Z,0
2017-05-24T03:19:27.898Z,0
2017-05-24T03:20:27.574Z,0
2017-05-24T03:21:27.329Z,0
2017-05-24T03:22:27.569Z,0
2017-05-24T03:23:28.189Z,0
2017-05-24T03:24:28.175Z,0
2017-05-24T03:25:27.559Z,0
2017-05-24T03:26:28.169Z,0
2017-05-24T03:27:27.861Z,0
2017-05-24T03:28:28.165Z,0
2017-05-24T03:29:28.160Z,0
2017-05-24T03:30:28.151Z,0
2017-05-24T03:31:28.153Z,0
2017-05-24T03:32:28.148Z,0
2017-05-24T03:33:28.146Z,0
2017-05-24T03:34:28.148Z,0
2017-05-24T03:35:27.833Z,0
2017-05-24T03:36:27.523Z,0
2017-05-24T03:37:27.828Z,0
2017-05-24T03:38:27.826Z,0
2017-05-24T03:39:28.125Z,0
2017-05-24T03:40:27.811Z,0
2017-05-24T03:41:28.117Z,0
2017-05-24T03:42:28.113Z,0
2017-05-24T03:43:27.803Z,0
2017-05-24T03:44:28.118Z,0
2017-05-24T03:45:28.114Z,0
2017-05-24T03:46:28.101Z,0
2017-05-24T03:47:27.825Z,0
2017-05-24T03:48:27.793Z,0
2017-05-24T03:49:27.789Z,0
2017-05-24T03:50:28.085Z,0
2017-05-24T03:51:28.085Z,0
2017-05-24T03:52:28.084Z,0
2017-05-24T03:53:28.091Z,0
2017-05-24T03:54:27.770Z,0
2017-05-24T03:55:27.469Z,0
2017-05-24T03:56:28.071Z,0
2017-05-24T03:57:27.756Z,0
2017-05-24T03:58:27.760Z,0
2017-05-24T03:59:28.059Z,0
2017-05-24T04:00:27.747Z,0
2017-05-24T04:01:27.440Z,0
2017-05-24T04:02:28.049Z,0
2017-05-24T04:03:28.046Z,0
2017-05-24T04:04:28.050Z,0
2017-05-24T04:05:28.043Z,0
2017-05-24T04:06:27.730Z,5
2017-05-24T04:07:28.030Z,5
2017-05-24T04:08:28.026Z,5
2017-05-24T04:09:28.024Z,5
2017-05-24T04:10:28.029Z,5
2017-05-24T04:11:27.708Z,5
2017-05-24T04:12:27.399Z,5
2017-05-24T04:13:28.010Z,5
2017-05-24T04:14:27.705Z,5
2017-05-24T04:15:28.068Z,5
2017-05-24T04:16:27.694Z,5
2017-05-24T04:17:28.004Z,5
2017-05-24T04:18:27.996Z,5
2017-05-24T04:19:27.385Z,5
2017-05-24T04:20:27.983Z,5
2017-05-24T04:21:27.985Z,5
2017-05-24T04:22:27.979Z,5
2017-05-24T04:23:27.672Z,5
2017-05-24T04:24:27.723Z,5
2017-05-24T04:25:27.983Z,5
2017-05-24T04:26:27.971Z,5
2017-05-24T04:27:27.660Z,5
2017-05-24T04:28:27.962Z,5
2017-05-24T04:29:27.961Z,5
2017-05-24T04:30:27.339Z,5
2017-05-24T04:31:27.342Z,5
2017-05-24T04:32:27.335Z,5
2017-05-24T04:33:27.636Z,5
2017-05-24T04:34:27.633Z,5
2017-05-24T04:35:27.943Z,5
2017-05-24T04:36:27.934Z,5
2017-05-24T04:37:27.929Z,5
2017-05-24T04:38:27.624Z,5
2017-05-24T04:39:27.315Z,5
2017-05-24T04:40:27.920Z,10
2017-05-24T04:41:27.618Z,10
2017-05-24T04:42:27.602Z,10
2017-05-24T04:43:27.916Z,10
2017-05-24T04:44:27.602Z,10
2017-05-24T04:45:27.287Z,10
2017-05-24T04:46:27.594Z,10
2017-05-24T04:47:27.593Z,10
2017-05-24T04:48:27.585Z,10
2017-05-24T04:49:27.887Z,10
2017-05-24T04:50:27.274Z,10
2017-05-24T04:51:27.881Z,10
2017-05-24T04:52:27.886Z,10
2017-05-24T04:53:27.574Z,10
2017-05-24T04:54:27.570Z,10
2017-05-24T04:55:27.256Z,10
2017-05-24T04:56:27.558Z,10
2017-05-24T04:57:27.565Z,10
2017-05-24T04:58:27.554Z,10
2017-05-24T04:59:27.861Z,10
2017-05-24T05:00:27.854Z,15
2017-05-24T05:01:27.591Z,15
2017-05-24T05:02:27.537Z,15
2017-05-24T05:03:27.234Z,15
2017-05-24T05:04:27.541Z,15
2017-05-24T05:05:27.837Z,15
2017-05-24T05:06:27.832Z,15
2017-05-24T05:07:27.829Z,15
2017-05-24T05:08:27.525Z,20
2017-05-24T05:09:27.826Z,25
2017-05-24T05:10:26.597Z,25
2017-05-24T05:11:27.508Z,25
2017-05-24T05:12:27.503Z,25
2017-05-24T05:13:27.811Z,25
2017-05-24T05:14:27.817Z,25
2017-05-24T05:15:27.498Z,25
2017-05-24T05:16:27.799Z,25
2017-05-24T05:17:27.797Z,20
2017-05-24T05:18:27.185Z,20
2017-05-24T05:19:27.801Z,25
2017-05-24T05:20:27.480Z,25
2017-05-24T05:21:27.167Z,25
2017-05-24T05:22:27.775Z,25
2017-05-24T05:23:27.472Z,30
2017-05-24T05:24:27.160Z,30
2017-05-24T05:25:26.849Z,30
2017-05-24T05:26:27.764Z,35
2017-05-24T05:27:27.452Z,35
2017-05-24T05:28:27.151Z,40
2017-05-24T05:29:27.455Z,40
2017-05-24T05:30:27.453Z,45
2017-05-24T05:31:27.445Z,45
2017-05-24T05:32:27.745Z,45
2017-05-24T05:33:27.141Z,45
2017-05-24T05:34:27.741Z,45
2017-05-24T05:35:27.740Z,40
2017-05-24T05:36:27.433Z,40
2017-05-24T05:37:27.425Z,40
2017-05-24T05:38:27.739Z,40
2017-05-24T05:39:27.729Z,40
2017-05-24T05:40:27.722Z,40
2017-05-24T05:41:27.411Z,45
2017-05-24T05:42:27.772Z,55
2017-05-24T05:43:27.714Z,65
2017-05-24T05:44:27.406Z,60
2017-05-24T05:45:27.091Z,60
2017-05-24T05:46:27.708Z,60
2017-05-24T05:47:27.696Z,55
2017-05-24T05:48:27.393Z,55
2017-05-24T05:49:27.699Z,55
2017-05-24T05:50:27.388Z,55
2017-05-24T05:51:27.077Z,60
2017-05-24T05:52:27.680Z,65
2017-05-24T05:53:27.681Z,75
2017-05-24T05:54:27.677Z,80
2017-05-24T05:55:27.734Z,80
2017-05-24T05:56:27.668Z,80
2017-05-24T05:57:27.666Z,70
2017-05-24T05:58:27.667Z,60
2017-05-24T05:59:27.359Z,55
2017-05-24T06:00:27.044Z,55
2017-05-24T06:01:27.352Z,55
2017-05-24T06:02:27.713Z,55
2017-05-24T06:03:27.659Z,55
2017-05-24T06:04:27.337Z,55
2017-05-24T06:05:27.342Z,55
2017-05-24T06:06:27.334Z,55
2017-05-24T06:07:27.034Z,55
2017-05-24T06:08:27.327Z,55
2017-05-24T06:09:27.025Z,50
2017-05-24T06:10:27.626Z,55
2017-05-24T06:11:27.319Z,55
2017-05-24T06:12:27.312Z,55
2017-05-24T06:13:27.622Z,55
2017-05-24T06:14:27.317Z,50
2017-05-24T06:15:27.310Z,50
2017-05-24T06:16:27.310Z,50
2017-05-24T06:17:27.307Z,50
2017-05-24T06:18:27.607Z,50
2017-05-24T06:19:27.302Z,55
2017-05-24T06:20:26.989Z,60
2017-05-24T06:21:26.985Z,60
2017-05-24T06:22:26.983Z,60
2017-05-24T06:23:26.987Z,60
2017-05-24T06:24:27.286Z,55
2017-05-24T06:25:26.973Z,50
2017-05-24T06:26:27.273Z,50
2017-05-24T06:27:27.278Z,55
2017-05-24T06:28:27.275Z,55
2017-05-24T06:29:26.962Z,50
2017-05-24T06:30:27.263Z,50
2017-05-24T06:31:26.650Z,50
2017-05-24T06:32:27.262Z,55
2017-05-24T06:33:26.642Z,55
2017-05-24T06:34:27.258Z,60
2017-05-24T06:35:27.556Z,60
2017-05-24T06:36:26.634Z,65
2017-05-24T06:37:26.634Z,65
2017-05-24T06:38:26.937Z,60
2017-05-24T06:39:27.542Z,60
2017-05-24T06:40:27.235Z,55
2017-05-24T06:41:27.539Z,50
2017-05-24T06:42:27.227Z,50
2017-05-24T06:43:27.531Z,50
2017-05-24T06:44:26.915Z,50
2017-05-24T06:45:27.417Z,55
2017-05-24T06:46:27.547Z,60
2017-05-24T06:47:27.214Z,60
2017-05-24T06:48:27.519Z,60
2017-05-24T06:49:27.518Z,60
2017-05-24T06:50:27.514Z,60
2017-05-24T06:51:26.899Z,65
2017-05-24T06:52:27.199Z,75
2017-05-24T06:53:26.890Z,75
2017-05-24T06:54:27.193Z,75
2017-05-24T06:55:26.575Z,70
2017-05-24T06:56:26.880Z,65
2017-05-24T06:57:26.574Z,65
2017-05-24T06:58:27.255Z,60
2017-05-24T06:59:27.479Z,65
2017-05-24T07:00:27.486Z,65
2017-05-24T07:01:27.173Z,65
2017-05-24T07:02:26.868Z,65
2017-05-24T07:03:27.159Z,65
2017-05-24T07:04:26.857Z,75
2017-05-24T07:05:27.163Z,85
2017-05-24T07:06:27.155Z,95
2017-05-24T07:07:27.460Z,100
2017-05-24T07:08:27.155Z,100
2017-05-24T07:09:27.147Z,110
2017-05-24T07:10:27.147Z,120
2017-05-24T07:11:27.449Z,120
2017-05-24T07:12:27.140Z,120
2017-05-24T07:13:27.202Z,120
2017-05-24T07:14:27.143Z,130
2017-05-24T07:15:27.136Z,140
2017-05-24T07:16:27.444Z,155
2017-05-24T07:17:26.822Z,165
2017-05-24T07:18:26.823Z,180
2017-05-24T07:19:26.820Z,190
2017-05-24T07:20:27.424Z,205
2017-05-24T07:21:26.809Z,305
2017-05-24T07:22:27.116Z,245
2017-05-24T07:23:26.817Z,275
2017-05-24T07:24:27.111Z,240
2017-05-24T07:25:26.797Z,220
2017-05-24T07:26:26.801Z,180
2017-05-24T07:27:27.418Z,240
2017-05-24T07:28:26.802Z,195
2017-05-24T07:29:26.795Z,195
2017-05-24T07:30:27.402Z,220
2017-05-24T07:31:27.095Z,225
2017-05-24T07:32:26.788Z,225
2017-05-24T07:33:27.094Z,220
2017-05-24T07:34:27.091Z,250
2017-05-24T07:35:26.777Z,230
2017-05-24T07:36:26.773Z,185
2017-05-24T07:37:27.395Z,200
2017-05-24T07:38:27.084Z,215
2017-05-24T07:39:27.083Z,180
2017-05-24T07:40:27.384Z,180
2017-05-24T07:41:27.070Z,205
2017-05-24T07:42:27.380Z,190
2017-05-24T07:43:27.379Z,180
2017-05-24T07:44:27.073Z,175
2017-05-24T07:45:27.066Z,170
2017-05-24T07:46:27.367Z,170
2017-05-24T07:47:27.371Z,200
2017-05-24T07:48:27.366Z,175
2017-05-24T07:49:27.055Z,190
2017-05-24T07:50:27.364Z,215
2017-05-24T07:51:27.355Z,245
2017-05-24T07:52:26.749Z,240
2017-05-24T07:53:26.752Z,245
2017-05-24T07:54:27.060Z,240
2017-05-24T07:55:27.045Z,235
2017-05-24T07:56:27.049Z,235
2017-05-24T07:57:27.046Z,235
2017-05-24T07:58:27.346Z,235
2017-05-24T07:59:27.354Z,210
2017-05-24T08:00:27.341Z,195
2017-05-24T08:01:27.037Z,185
2017-05-24T08:02:27.343Z,185
2017-05-24T08:03:27.035Z,200
2017-05-24T08:04:27.034Z,175
2017-05-24T08:05:27.030Z,165
2017-05-24T08:06:27.088Z,170
2017-05-24T08:07:27.025Z,175
2017-05-24T08:08:27.333Z,180
2017-05-24T08:09:27.033Z,185
2017-05-24T08:10:27.083Z,170
2017-05-24T08:11:27.022Z,165
2017-05-24T08:12:27.026Z,170
2017-05-24T08:13:27.017Z,160
2017-05-24T08:14:27.022Z,160
2017-05-24T08:15:27.011Z,150
2017-05-24T08:16:27.015Z,145
2017-05-24T08:17:26.712Z,145
2017-05-24T08:18:27.010Z,140
2017-05-24T08:19:27.014Z,135
2017-05-24T08:20:27.313Z,130
2017-05-24T08:21:27.311Z,125
2017-05-24T08:22:27.004Z,125
2017-05-24T08:23:27.008Z,135
2017-05-24T08:24:26.701Z,135
2017-05-24T08:25:26.997Z,140
2017-05-24T08:26:27.300Z,130
2017-05-24T08:27:27.308Z,145
2017-05-24T08:28:27.002Z,145
2017-05-24T08:29:27.297Z,145
2017-05-24T08:30:26.990Z,145
2017-05-24T08:31:27.297Z,145
2017-05-24T08:32:26.715Z,150
2017-05-24T08:33:26.692Z,155
2017-05-24T08:34:27.294Z,155
2017-05-24T08:35:26.675Z,155
2017-05-24T08:36:26.678Z,155
2017-05-24T08:37:27.282Z,150
2017-05-24T08:38:27.340Z,150
2017-05-24T08:39:27.285Z,155
2017-05-24T08:40:26.982Z,155
2017-05-24T08:41:26.669Z,160
2017-05-24T08:42:26.980Z,160
2017-05-24T08:43:27.274Z,160
2017-05-24T08:44:27.279Z,155
2017-05-24T08:45:27.270Z,155
2017-05-24T08:46:26.659Z,155
2017-05-24T08:47:26.966Z,155
2017-05-24T08:48:26.968Z,155
2017-05-24T08:49:27.267Z,155
2017-05-24T08:50:26.964Z,155
2017-05-24T08:51:27.266Z,150
2017-05-24T08:52:27.276Z,155
2017-05-24T08:53:27.265Z,155
2017-05-24T08:54:27.261Z,150
2017-05-24T08:55:27.255Z,140
2017-05-24T08:56:26.644Z,135
2017-05-24T08:57:26.951Z,135
2017-05-24T08:58:26.696Z,130
2017-05-24T08:59:26.649Z,130
2017-05-24T09:00:27.016Z,125
2017-05-24T09:01:26.947Z,115
2017-05-24T09:02:27.247Z,110
2017-05-24T09:03:27.241Z,105
2017-05-24T09:04:27.246Z,105
2017-05-24T09:05:26.934Z,100
2017-05-24T09:06:26.939Z,85
2017-05-24T09:07:26.993Z,75
2017-05-24T09:08:27.235Z,75
2017-05-24T09:09:27.235Z,70
2017-05-24T09:10:27.241Z,70
2017-05-24T09:11:26.623Z,65
2017-05-24T09:12:27.236Z,70
2017-05-24T09:13:27.281Z,70
2017-05-24T09:14:27.233Z,65
2017-05-24T09:15:27.221Z,65
2017-05-24T09:16:26.916Z,65
2017-05-24T09:17:27.217Z,65
2017-05-24T09:18:26.910Z,65
2017-05-24T09:19:26.909Z,65
2017-05-24T09:20:27.215Z,65
2017-05-24T09:21:26.954Z,65
2017-05-24T09:22:27.211Z,65
2017-05-24T09:23:26.910Z,65
2017-05-24T09:24:27.215Z,65
2017-05-24T09:25:26.598Z,65
2017-05-24T09:26:26.591Z,60
2017-05-24T09:27:26.642Z,65
2017-05-24T09:28:27.244Z,65
2017-05-24T09:29:27.207Z,65
2017-05-24T09:30:27.188Z,65
2017-05-24T09:31:26.891Z,65
2017-05-24T09:32:26.882Z,65
2017-05-24T09:33:27.186Z,60
2017-05-24T09:34:27.184Z,65
2017-05-24T09:35:27.179Z,65
2017-05-24T09:36:26.877Z,65
2017-05-24T09:37:27.174Z,60
2017-05-24T09:38:26.618Z,60
2017-05-24T09:39:26.564Z,60
2017-05-24T09:40:27.166Z,60
2017-05-24T09:41:27.163Z,60
2017-05-24T09:42:27.163Z,60
2017-05-24T09:43:27.166Z,60
2017-05-24T09:44:27.158Z,65
2017-05-24T09:45:27.156Z,65
2017-05-24T09:46:27.154Z,60
2017-05-24T09:47:26.851Z,60
2017-05-24T09:48:26.899Z,60
2017-05-24T09:49:27.153Z,60
2017-05-24T09:50:27.142Z,60
2017-05-24T09:51:27.150Z,65
2017-05-24T09:52:27.140Z,65
2017-05-24T09:53:27.137Z,60
2017-05-24T09:54:26.836Z,60
2017-05-24T09:55:27.132Z,60
2017-05-24T09:56:27.130Z,60
2017-05-24T09:57:27.130Z,55
2017-05-24T09:58:27.123Z,60
2017-05-24T09:59:27.132Z,60
2017-05-24T10:00:27.119Z,65
2017-05-24T10:01:26.813Z,65
2017-05-24T10:02:27.117Z,65
2017-05-24T10:03:27.115Z,65
2017-05-24T10:04:27.164Z,65
2017-05-24T10:05:27.112Z,65
2017-05-24T10:06:26.800Z,65
2017-05-24T10:07:26.492Z,65
2017-05-24T10:08:26.802Z,65
2017-05-24T10:09:26.489Z,65
2017-05-24T10:10:27.096Z,70
2017-05-24T10:11:27.091Z,70
2017-05-24T10:12:26.788Z,70
2017-05-24T10:13:26.784Z,75
2017-05-24T10:14:27.137Z,80
2017-05-24T10:15:27.085Z,80
2017-05-24T10:16:26.473Z,80
2017-05-24T10:17:27.095Z,85
2017-05-24T10:18:27.094Z,85
2017-05-24T10:19:26.786Z,85
2017-05-24T10:20:27.070Z,85
2017-05-24T10:21:26.771Z,80
2017-05-24T10:22:26.775Z,85
2017-05-24T10:23:27.067Z,90
2017-05-24T10:24:26.506Z,90
2017-05-24T10:25:26.757Z,85
2017-05-24T10:26:27.063Z,75
2017-05-24T10:27:26.747Z,75
2017-05-24T10:28:27.064Z,90
2017-05-24T10:29:27.056Z,95
2017-05-24T10:30:26.441Z,90
2017-05-24T10:31:26.430Z,80
2017-05-24T10:32:27.055Z,75
2017-05-24T10:33:26.431Z,75
2017-05-24T10:34:26.495Z,70
2017-05-24T10:35:26.731Z,75
2017-05-24T10:36:27.041Z,70
2017-05-24T10:37:27.032Z,70
2017-05-24T10:38:26.426Z,65
2017-05-24T10:39:26.476Z,70
2017-05-24T10:40:27.033Z,70
2017-05-24T10:41:27.026Z,75
2017-05-24T10:42:27.019Z,80
2017-05-24T10:43:27.024Z,85
2017-05-24T10:44:27.018Z,95
2017-05-24T10:45:26.711Z,100
2017-05-24T10:46:26.707Z,115
2017-05-24T10:47:27.023Z,120
2017-05-24T10:48:26.709Z,120
2017-05-24T10:49:26.756Z,110
2017-05-24T10:50:27.007Z,100
2017-05-24T10:51:26.701Z,95
2017-05-24T10:52:26.698Z,80
2017-05-24T10:53:26.694Z,70
2017-05-24T10:54:27.203Z,60
2017-05-24T10:55:26.382Z,60
2017-05-24T10:56:26.997Z,60
2017-05-24T10:57:26.991Z,55
2017-05-24T10:58:26.985Z,55
2017-05-24T10:59:26.691Z,55
2017-05-24T11:00:26.369Z,55
2017-05-24T11:01:26.372Z,55
2017-05-24T11:02:26.979Z,50
2017-05-24T11:03:26.990Z,55
2017-05-24T11:04:27.030Z,55
2017-05-24T11:05:26.665Z,55
2017-05-24T11:06:26.973Z,55
2017-05-24T11:07:26.666Z,55
2017-05-24T11:08:26.669Z,55
2017-05-24T11:09:26.357Z,60
2017-05-24T11:10:26.960Z,65
2017-05-24T11:11:26.953Z,65
2017-05-24T11:12:26.952Z,65
2017-05-24T11:13:26.961Z,65
2017-05-24T11:14:27.007Z,60
2017-05-24T11:15:26.339Z,55
2017-05-24T11:16:26.946Z,55
2017-05-24T11:17:26.640Z,55
2017-05-24T11:18:26.646Z,55
2017-05-24T11:19:26.631Z,65
2017-05-24T11:20:26.632Z,70
2017-05-24T11:21:26.941Z,65
2017-05-24T11:22:26.932Z,70
2017-05-24T11:23:26.625Z,70
2017-05-24T11:24:26.983Z,75
2017-05-24T11:25:26.618Z,65
2017-05-24T11:26:26.927Z,60
2017-05-24T11:27:26.612Z,70
2017-05-24T11:28:26.922Z,65
2017-05-24T11:29:26.834Z,70
2017-05-24T11:30:26.304Z,80
2017-05-24T11:31:26.916Z,80
2017-05-24T11:32:26.606Z,75
2017-05-24T11:33:26.599Z,65
2017-05-24T11:34:26.610Z,65
2017-05-24T11:35:26.600Z,60
2017-05-24T11:36:26.291Z,60
2017-05-24T11:37:26.904Z,60
2017-05-24T11:38:26.899Z,65
2017-05-24T11:39:26.894Z,65
2017-05-24T11:40:26.890Z,65
2017-05-24T11:41:26.886Z,65
2017-05-24T11:42:26.886Z,65
2017-05-24T11:43:26.579Z,70
2017-05-24T11:44:26.893Z,75
2017-05-24T11:45:26.905Z,75
2017-05-24T11:46:25.721Z,80
2017-05-24T11:47:26.873Z,80
2017-05-24T11:48:26.877Z,85
2017-05-24T11:49:26.568Z,85
2017-05-24T11:50:26.249Z,85
2017-05-24T11:51:26.865Z,85
2017-05-24T11:52:26.860Z,85
2017-05-24T11:53:26.252Z,85
2017-05-24T11:54:26.251Z,90
2017-05-24T11:55:26.554Z,95
2017-05-24T11:56:26.245Z,100
2017-05-24T11:57:26.858Z,110
2017-05-24T11:58:26.861Z,120
2017-05-24T11:59:26.244Z,120
2017-05-24T12:00:26.846Z,115
2017-05-24T12:01:26.239Z,110
2017-05-24T12:02:27.044Z,105
2017-05-24T12:03:26.848Z,100
2017-05-24T12:04:26.841Z,100
2017-05-24T12:05:26.833Z,100
2017-05-24T12:06:26.839Z,105
2017-05-24T12:07:26.529Z,105
2017-05-24T12:08:26.256Z,110
2017-05-24T12:09:26.221Z,115
2017-05-24T12:10:26.210Z,110
2017-05-24T12:11:26.514Z,105
2017-05-24T12:12:26.521Z,105
2017-05-24T12:13:25.930Z,110
2017-05-24T12:14:26.821Z,105
2017-05-24T12:15:26.815Z,105
2017-05-24T12:16:26.197Z,95
2017-05-24T12:17:26.813Z,90
2017-05-24T12:18:26.201Z,90
2017-05-24T12:19:26.196Z,90
2017-05-24T12:20:26.196Z,85
2017-05-24T12:21:26.199Z,85
2017-05-24T12:22:26.188Z,85
2017-05-24T12:23:26.804Z,85
2017-05-24T12:24:26.812Z,85
2017-05-24T12:25:26.796Z,90
2017-05-24T12:26:26.794Z,90
2017-05-24T12:27:26.181Z,100
2017-05-24T12:28:26.789Z,100
2017-05-24T12:29:26.176Z,100
2017-05-24T12:30:25.867Z,100
2017-05-24T12:31:26.782Z,100
2017-05-24T12:32:26.166Z,105
2017-05-24T12:33:26.779Z,105
2017-05-24T12:34:26.785Z,110
2017-05-24T12:35:26.827Z,110
2017-05-24T12:36:26.774Z,110
2017-05-24T12:37:26.160Z,110
2017-05-24T12:38:26.468Z,100
2017-05-24T12:39:26.472Z,95
2017-05-24T12:40:26.767Z,90
2017-05-24T12:41:26.150Z,85
2017-05-24T12:42:26.458Z,80
2017-05-24T12:44:26.457Z,65
2017-05-24T12:45:26.766Z,55
2017-05-24T12:46:26.446Z,55
2017-05-24T12:47:26.452Z,55
2017-05-24T12:48:26.972Z,65
2017-05-24T12:49:26.757Z,75
2017-05-24T12:50:26.137Z,75
2017-05-24T12:51:26.747Z,70
2017-05-24T12:52:26.739Z,65
2017-05-24T12:53:26.747Z,70
2017-05-24T12:54:26.746Z,70
2017-05-24T12:55:26.435Z,75
2017-05-24T12:56:26.732Z,70
2017-05-24T12:57:26.734Z,65
2017-05-24T12:58:26.423Z,65
2017-05-24T12:59:26.119Z,65
2017-05-24T13:00:26.726Z,60
2017-05-24T13:01:26.109Z,60
2017-05-24T13:02:26.414Z,60
2017-05-24T13:03:26.723Z,60
2017-05-24T13:04:26.723Z,60
2017-05-24T13:05:26.107Z,60
2017-05-24T13:06:25.487Z,60
2017-05-24T13:07:25.488Z,60
2017-05-24T13:08:26.117Z,60
2017-05-24T13:09:26.102Z,60
2017-05-24T13:10:26.093Z,60
2017-05-24T13:11:26.399Z,55
2017-05-24T13:12:26.084Z,55
2017-05-24T13:13:26.091Z,55
2017-05-24T13:14:26.390Z,60
2017-05-24T13:15:26.698Z,65
2017-05-24T13:16:26.689Z,65
2017-05-24T13:17:26.697Z,65
2017-05-24T13:18:26.078Z,60
2017-05-24T13:19:26.077Z,60
2017-05-24T13:20:26.375Z,60
2017-05-24T13:21:25.759Z,65
2017-05-24T13:22:26.679Z,70
2017-05-24T13:23:25.817Z,65
2017-05-24T13:24:26.688Z,60
2017-05-24T13:25:26.367Z,65
2017-05-24T13:26:26.670Z,65
2017-05-24T13:27:26.670Z,65
2017-05-24T13:28:26.678Z,70
2017-05-24T13:29:26.666Z,70
2017-05-24T13:30:26.052Z,65
2017-05-24T13:31:26.659Z,60
2017-05-24T13:32:25.745Z,60
2017-05-24T13:33:26.660Z,60
2017-05-24T13:34:26.042Z,55
2017-05-24T13:35:26.347Z,55
2017-05-24T13:36:26.035Z,55
2017-05-24T13:37:26.040Z,55
2017-05-24T13:38:26.346Z,55
2017-05-24T13:39:26.648Z,60
2017-05-24T13:40:26.643Z,60
2017-05-24T13:41:26.640Z,60
2017-05-24T13:42:26.329Z,60
2017-05-24T13:43:26.342Z,60
2017-05-24T13:44:26.336Z,65
2017-05-24T13:45:26.329Z,70
2017-05-24T13:46:26.337Z,75
2017-05-24T13:47:26.625Z,75
2017-05-24T13:48:26.624Z,75
2017-05-24T13:49:26.625Z,75
2017-05-24T13:50:26.318Z,70
2017-05-24T13:51:26.317Z,70
2017-05-24T13:52:26.313Z,70
2017-05-24T13:53:26.003Z,70
2017-05-24T13:54:26.631Z,70
2017-05-24T13:55:26.309Z,70
2017-05-24T13:56:26.611Z,70
2017-05-24T13:57:26.609Z,70
2017-05-24T13:58:26.297Z,70
2017-05-24T13:59:26.634Z,75
2017-05-24T14:00:26.293Z,75
2017-05-24T14:01:26.344Z,70
2017-05-24T14:02:26.595Z,70
2017-05-24T14:03:26.302Z,70
2017-05-24T14:04:26.295Z,65
2017-05-24T14:05:26.286Z,65
2017-05-24T14:06:26.282Z,65
2017-05-24T14:07:26.598Z,65
2017-05-24T14:08:26.288Z,70
2017-05-24T14:09:26.280Z,70
2017-05-24T14:10:26.279Z,70
2017-05-24T14:11:26.274Z,70
2017-05-24T14:12:25.958Z,75
2017-05-24T14:13:25.963Z,75
2017-05-24T14:14:26.576Z,75
2017-05-24T14:15:26.258Z,80
2017-05-24T14:16:26.569Z,85
2017-05-24T14:17:26.574Z,85
2017-05-24T14:18:26.263Z,85
2017-05-24T14:19:26.257Z,80
2017-05-24T14:20:26.255Z,75